sensor_id;sensor_type;location;lat;lon;timestamp;pressure;altitude;pressure_sealevel;temperature;humidity
9423;BME280;65863;49.506;10.400;2024-01-07T00:01:08;97468.31;;;1.92;100.00
9423;BME280;65863;49.506;10.400;2024-01-07T00:03:53;97455.75;;;1.68;100.00
9423;BME280;65863;49.506;10.400;2024-01-07T00:06:37;97458.03;;;1.70;100.00
9423;BME280;65863;49.506;10.400;2024-01-07T00:09:30;97458.28;;;1.66;100.00
9423;BME280;65863;49.506;10.400;2024-01-07T00:12:14;97459.50;;;1.82;100.00
9423;BME280;65863;49.506;10.400;2024-01-07T00:14:58;97497.50;;;1.99;100.00
9423;BME280;65863;49.506;10.400;2024-01-07T00:17:43;97480.41;;;1.89;100.00
9423;BME280;65863;49.506;10.400;2024-01-07T00:20:27;97472.31;;;1.97;100.00
9423;BME280;65863;49.506;10.400;2024-01-07T00:23:11;97465.72;;;2.11;100.00
9423;BME280;65863;49.506;10.400;2024-01-07T00:25:55;97431.34;;;1.84;100.00
9423;BME280;65863;49.506;10.400;2024-01-07T00:28:39;97453.19;;;2.04;100.00
9423;BME280;65863;49.506;10.400;2024-01-07T00:31:23;97422.53;;;1.80;100.00
9423;BME280;65863;49.506;10.400;2024-01-07T00:34:07;97481.03;;;2.23;100.00
9423;BME280;65863;49.506;10.400;2024-01-07T00:36:51;97465.22;;;2.13;100.00
9423;BME280;65863;49.506;10.400;2024-01-07T00:39:35;97480.25;;;2.34;100.00
9423;BME280;65863;49.506;10.400;2024-01-07T00:42:21;97472.72;;;2.29;100.00
9423;BME280;65863;49.506;10.400;2024-01-07T00:45:05;97456.91;;;2.18;100.00
9423;BME280;65863;49.506;10.400;2024-01-07T00:47:49;97490.06;;;2.35;100.00
9423;BME280;65863;49.506;10.400;2024-01-07T00:50:33;97462.66;;;2.26;100.00
9423;BME280;65863;49.506;10.400;2024-01-07T00:53:18;97467.50;;;2.14;100.00
9423;BME280;65863;49.506;10.400;2024-01-07T00:56:02;97457.38;;;2.22;100.00
9423;BME280;65863;49.506;10.400;2024-01-07T00:58:49;97438.53;;;2.10;100.00
9423;BME280;65863;49.506;10.400;2024-01-07T01:01:33;97470.25;;;2.20;100.00
9423;BME280;65863;49.506;10.400;2024-01-07T01:04:17;97475.25;;;2.27;100.00
9423;BME280;65863;49.506;10.400;2024-01-07T01:07:01;97478.75;;;2.33;100.00
9423;BME280;65863;49.506;10.400;2024-01-07T01:09:45;97464.38;;;2.35;100.00
9423;BME280;65863;49.506;10.400;2024-01-07T01:12:30;97470.41;;;2.39;100.00
9423;BME280;65863;49.506;10.400;2024-01-07T01:15:14;97486.22;;;2.50;100.00
9423;BME280;65863;49.506;10.400;2024-01-07T01:18:00;97458.09;;;2.34;100.00
9423;BME280;65863;49.506;10.400;2024-01-07T01:20:44;97477.19;;;2.44;100.00
9423;BME280;65863;49.506;10.400;2024-01-07T01:23:28;97482.00;;;2.37;100.00
9423;BME280;65863;49.506;10.400;2024-01-07T01:26:12;97474.66;;;2.46;100.00
9423;BME280;65863;49.506;10.400;2024-01-07T01:28:56;97469.13;;;2.46;100.00
9423;BME280;65863;49.506;10.400;2024-01-07T01:31:40;97457.84;;;2.32;100.00
9423;BME280;65863;49.506;10.400;2024-01-07T01:34:25;97490.16;;;2.71;100.00
9423;BME280;65863;49.506;10.400;2024-01-07T01:37:09;97476.41;;;2.49;100.00
9423;BME280;65863;49.506;10.400;2024-01-07T01:39:53;97458.53;;;2.50;100.00
9423;BME280;65863;49.506;10.400;2024-01-07T01:42:37;97450.75;;;2.43;100.00
9423;BME280;65863;49.506;10.400;2024-01-07T01:45:21;97479.34;;;2.62;100.00
9423;BME280;65863;49.506;10.400;2024-01-07T01:48:05;97485.59;;;2.74;100.00
9423;BME280;65863;49.506;10.400;2024-01-07T01:50:50;97487.41;;;2.66;100.00
9423;BME280;65863;49.506;10.400;2024-01-07T01:53:34;97466.56;;;2.53;100.00
9423;BME280;65863;49.506;10.400;2024-01-07T01:56:19;97502.97;;;2.74;100.00
9423;BME280;65863;49.506;10.400;2024-01-07T01:59:04;97464.28;;;2.52;100.00
9423;BME280;65863;49.506;10.400;2024-01-07T02:01:48;97474.00;;;2.75;99.81
9423;BME280;65863;49.506;10.400;2024-01-07T02:04:32;97503.19;;;2.88;100.00
9423;BME280;65863;49.506;10.400;2024-01-07T02:07:16;97463.28;;;2.55;99.80
9423;BME280;65863;49.506;10.400;2024-01-07T02:10:00;97479.25;;;2.79;99.61
9423;BME280;65863;49.506;10.400;2024-01-07T02:12:44;97493.09;;;2.85;99.44
9423;BME280;65863;49.506;10.400;2024-01-07T02:15:30;97489.31;;;2.88;99.14
9423;BME280;65863;49.506;10.400;2024-01-07T02:18:14;97477.53;;;2.76;98.86
9423;BME280;65863;49.506;10.400;2024-01-07T02:20:58;97490.56;;;2.87;98.64
9423;BME280;65863;49.506;10.400;2024-01-07T02:23:42;97487.03;;;2.86;98.85
9423;BME280;65863;49.506;10.400;2024-01-07T02:26:26;97490.31;;;2.85;98.63
9423;BME280;65863;49.506;10.400;2024-01-07T02:29:10;97499.84;;;2.95;98.72
9423;BME280;65863;49.506;10.400;2024-01-07T02:31:54;97482.28;;;2.81;98.76
9423;BME280;65863;49.506;10.400;2024-01-07T02:34:38;97438.88;;;2.48;98.38
9423;BME280;65863;49.506;10.400;2024-01-07T02:37:22;97483.28;;;2.84;97.75
9423;BME280;65863;49.506;10.400;2024-01-07T02:40:06;97484.84;;;2.73;98.25
9423;BME280;65863;49.506;10.400;2024-01-07T02:42:50;97451.94;;;2.58;97.82
9423;BME280;65863;49.506;10.400;2024-01-07T02:45:34;97493.84;;;2.85;97.45
9423;BME280;65863;49.506;10.400;2024-01-07T02:48:19;97455.44;;;2.59;97.99
9423;BME280;65863;49.506;10.400;2024-01-07T02:51:03;97481.06;;;2.77;97.67
9423;BME280;65863;49.506;10.400;2024-01-07T02:53:49;97492.91;;;2.77;97.70
9423;BME280;65863;49.506;10.400;2024-01-07T02:56:33;97471.53;;;2.66;97.52
9423;BME280;65863;49.506;10.400;2024-01-07T02:59:17;97308.19;;;1.43;97.87
9423;BME280;65863;49.506;10.400;2024-01-07T03:02:01;97470.28;;;2.62;97.45
9423;BME280;65863;49.506;10.400;2024-01-07T03:04:45;97477.06;;;2.66;97.79
9423;BME280;65863;49.506;10.400;2024-01-07T03:07:29;97478.31;;;2.71;97.33
9423;BME280;65863;49.506;10.400;2024-01-07T03:10:14;97462.75;;;2.56;97.08
9423;BME280;65863;49.506;10.400;2024-01-07T03:12:58;97480.13;;;2.63;96.84
9423;BME280;65863;49.506;10.400;2024-01-07T03:15:42;97489.91;;;2.69;95.99
9423;BME280;65863;49.506;10.400;2024-01-07T03:18:27;97488.69;;;2.59;96.14
9423;BME280;65863;49.506;10.400;2024-01-07T03:21:19;97504.78;;;2.66;95.73
9423;BME280;65863;49.506;10.400;2024-01-07T03:24:04;97479.22;;;2.37;96.40
9423;BME280;65863;49.506;10.400;2024-01-07T03:26:48;97493.25;;;2.51;96.67
9423;BME280;65863;49.506;10.400;2024-01-07T03:29:32;97492.56;;;2.39;96.78
9423;BME280;65863;49.506;10.400;2024-01-07T03:32:17;97488.06;;;2.36;96.54
9423;BME280;65863;49.506;10.400;2024-01-07T03:35:02;97494.81;;;2.40;96.21
9423;BME280;65863;49.506;10.400;2024-01-07T03:37:46;97480.28;;;2.23;95.65
9423;BME280;65863;49.506;10.400;2024-01-07T03:40:30;97486.09;;;2.19;95.77
9423;BME280;65863;49.506;10.400;2024-01-07T03:43:23;97518.53;;;2.36;95.14
9423;BME280;65863;49.506;10.400;2024-01-07T03:46:07;97494.66;;;2.16;95.05
9423;BME280;65863;49.506;10.400;2024-01-07T03:48:51;97450.44;;;1.93;95.41
9423;BME280;65863;49.506;10.400;2024-01-07T03:51:35;97512.03;;;2.11;94.96
9423;BME280;65863;49.506;10.400;2024-01-07T03:54:19;97473.34;;;1.88;94.81
9423;BME280;65863;49.506;10.400;2024-01-07T03:57:04;97499.47;;;1.98;95.02
9423;BME280;65863;49.506;10.400;2024-01-07T03:59:47;97488.72;;;1.83;95.29
9423;BME280;65863;49.506;10.400;2024-01-07T04:02:32;97513.09;;;1.96;94.80
9423;BME280;65863;49.506;10.400;2024-01-07T04:05:16;97512.09;;;1.94;94.93
9423;BME280;65863;49.506;10.400;2024-01-07T04:08:01;97508.59;;;1.82;95.12
9423;BME280;65863;49.506;10.400;2024-01-07T04:10:45;97513.88;;;1.80;94.85
9423;BME280;65863;49.506;10.400;2024-01-07T04:13:29;97497.03;;;1.66;95.40
9423;BME280;65863;49.506;10.400;2024-01-07T04:16:17;97529.44;;;1.88;95.05
9423;BME280;65863;49.506;10.400;2024-01-07T04:19:02;97513.13;;;1.74;95.28
9423;BME280;65863;49.506;10.400;2024-01-07T04:21:46;97540.28;;;1.81;95.47
9423;BME280;65863;49.506;10.400;2024-01-07T04:24:33;97521.94;;;1.66;95.74
9423;BME280;65863;49.506;10.400;2024-01-07T04:27:17;97465.88;;;1.26;95.36
9423;BME280;65863;49.506;10.400;2024-01-07T04:30:02;97548.59;;;1.75;95.22
9423;BME280;65863;49.506;10.400;2024-01-07T04:32:46;97573.25;;;1.90;95.27
9423;BME280;65863;49.506;10.400;2024-01-07T04:35:30;97576.25;;;1.92;95.05
9423;BME280;65863;49.506;10.400;2024-01-07T04:38:14;97561.69;;;1.80;95.26
9423;BME280;65863;49.506;10.400;2024-01-07T04:40:58;97581.56;;;1.90;94.83
9423;BME280;65863;49.506;10.400;2024-01-07T04:43:43;97563.44;;;1.78;94.85
9423;BME280;65863;49.506;10.400;2024-01-07T04:46:27;97564.69;;;1.77;95.29
9423;BME280;65863;49.506;10.400;2024-01-07T04:49:11;97568.97;;;1.78;94.82
9423;BME280;65863;49.506;10.400;2024-01-07T04:51:55;97566.22;;;1.72;95.00
9423;BME280;65863;49.506;10.400;2024-01-07T04:54:40;97580.06;;;1.78;95.04
9423;BME280;65863;49.506;10.400;2024-01-07T04:57:24;97592.13;;;1.86;94.02
9423;BME280;65863;49.506;10.400;2024-01-07T05:00:08;97588.34;;;1.78;94.10
9423;BME280;65863;49.506;10.400;2024-01-07T05:02:52;97589.38;;;1.69;94.16
9423;BME280;65863;49.506;10.400;2024-01-07T05:05:36;97598.16;;;1.79;93.91
9423;BME280;65863;49.506;10.400;2024-01-07T05:08:22;97568.47;;;1.51;94.25
9423;BME280;65863;49.506;10.400;2024-01-07T05:11:06;97610.22;;;1.76;94.19
9423;BME280;65863;49.506;10.400;2024-01-07T05:13:51;97588.34;;;1.49;93.36
9423;BME280;65863;49.506;10.400;2024-01-07T05:16:35;97605.69;;;1.61;93.39
9423;BME280;65863;49.506;10.400;2024-01-07T05:19:20;97565.69;;;1.28;93.12
9423;BME280;65863;49.506;10.400;2024-01-07T05:22:04;97588.84;;;1.48;93.04
9423;BME280;65863;49.506;10.400;2024-01-07T05:24:48;97588.34;;;1.44;93.65
9423;BME280;65863;49.506;10.400;2024-01-07T05:27:31;97545.28;;;1.14;93.36
9423;BME280;65863;49.506;10.400;2024-01-07T05:30:16;97590.06;;;1.35;93.52
9423;BME280;65863;49.506;10.400;2024-01-07T05:33:00;97611.72;;;1.48;93.45
9423;BME280;65863;49.506;10.400;2024-01-07T05:35:44;97627.31;;;1.57;93.48
9423;BME280;65863;49.506;10.400;2024-01-07T05:38:28;97549.78;;;0.95;93.65
9423;BME280;65863;49.506;10.400;2024-01-07T05:41:12;97603.88;;;1.24;93.68
9423;BME280;65863;49.506;10.400;2024-01-07T05:43:56;97600.88;;;1.28;93.14
9423;BME280;65863;49.506;10.400;2024-01-07T05:46:40;97643.91;;;1.46;93.20
9423;BME280;65863;49.506;10.400;2024-01-07T05:49:24;97627.28;;;1.34;93.42
9423;BME280;65863;49.506;10.400;2024-01-07T05:52:08;97638.59;;;1.31;93.10
9423;BME280;65863;49.506;10.400;2024-01-07T05:55:31;97639.59;;;1.28;92.21
9423;BME280;65863;49.506;10.400;2024-01-07T05:58:15;97651.19;;;1.32;92.83
9423;BME280;65863;49.506;10.400;2024-01-07T06:00:59;97634.53;;;1.09;93.30
9423;BME280;65863;49.506;10.400;2024-01-07T06:03:44;97657.91;;;1.14;93.33
9423;BME280;65863;49.506;10.400;2024-01-07T06:06:28;97672.50;;;1.20;92.94
9423;BME280;65863;49.506;10.400;2024-01-07T06:09:50;97660.16;;;1.10;93.00
9423;BME280;65863;49.506;10.400;2024-01-07T06:12:34;97650.56;;;0.99;93.11
9423;BME280;65863;49.506;10.400;2024-01-07T06:15:18;97678.22;;;1.05;92.64
9423;BME280;65863;49.506;10.400;2024-01-07T06:18:02;97671.41;;;1.00;92.38
9423;BME280;65863;49.506;10.400;2024-01-07T06:20:46;97659.06;;;0.90;92.81
9423;BME280;65863;49.506;10.400;2024-01-07T06:23:32;97667.13;;;0.94;93.43
9423;BME280;65863;49.506;10.400;2024-01-07T06:26:16;97667.34;;;0.90;93.39
9423;BME280;65863;49.506;10.400;2024-01-07T06:29:00;97690.28;;;1.08;92.37
9423;BME280;65863;49.506;10.400;2024-01-07T06:31:45;97677.91;;;0.92;92.63
9423;BME280;65863;49.506;10.400;2024-01-07T06:34:29;97705.38;;;1.07;92.52
9423;BME280;65863;49.506;10.400;2024-01-07T06:37:13;97674.91;;;0.90;92.49
9423;BME280;65863;49.506;10.400;2024-01-07T06:39:57;97607.06;;;0.40;92.46
9423;BME280;65863;49.506;10.400;2024-01-07T06:46:22;97694.22;;;0.84;91.98
9423;BME280;65863;49.506;10.400;2024-01-07T06:49:06;97695.72;;;0.85;91.55
9423;BME280;65863;49.506;10.400;2024-01-07T06:51:52;97698.94;;;0.78;91.70
9423;BME280;65863;49.506;10.400;2024-01-07T06:54:36;97696.63;;;0.71;91.87
9423;BME280;65863;49.506;10.400;2024-01-07T06:57:20;97685.06;;;0.66;91.78
9423;BME280;65863;49.506;10.400;2024-01-07T07:00:04;97666.13;;;0.48;91.88
9423;BME280;65863;49.506;10.400;2024-01-07T07:02:49;97719.56;;;0.77;91.91
9423;BME280;65863;49.506;10.400;2024-01-07T07:05:33;97706.44;;;0.72;92.12
9423;BME280;65863;49.506;10.400;2024-01-07T07:08:17;97674.38;;;0.42;91.58
9423;BME280;65863;49.506;10.400;2024-01-07T07:11:01;97722.75;;;0.64;92.16
9423;BME280;65863;49.506;10.400;2024-01-07T07:13:54;97718.50;;;0.68;92.17
9423;BME280;65863;49.506;10.400;2024-01-07T07:16:38;97732.56;;;0.71;92.41
9423;BME280;65863;49.506;10.400;2024-01-07T07:19:22;97722.69;;;0.58;92.24
9423;BME280;65863;49.506;10.400;2024-01-07T07:22:44;97726.97;;;0.59;91.97
9423;BME280;65863;49.506;10.400;2024-01-07T07:26:06;97723.41;;;0.53;92.26
9423;BME280;65863;49.506;10.400;2024-01-07T07:29:12;97742.84;;;0.70;91.46
9423;BME280;65863;49.506;10.400;2024-01-07T07:31:56;97708.78;;;0.41;91.11
9423;BME280;65863;49.506;10.400;2024-01-07T07:34:40;97750.38;;;0.64;91.12
9423;BME280;65863;49.506;10.400;2024-01-07T07:38:02;97684.31;;;0.28;90.86
9423;BME280;65863;49.506;10.400;2024-01-07T07:40:46;97733.75;;;0.58;91.21
9423;BME280;65863;49.506;10.400;2024-01-07T07:44:08;97734.75;;;0.61;90.86
9423;BME280;65863;49.506;10.400;2024-01-07T07:47:29;97743.50;;;0.54;90.28
9423;BME280;65863;49.506;10.400;2024-01-07T07:50:13;97750.78;;;0.57;89.91
9423;BME280;65863;49.506;10.400;2024-01-07T07:52:57;97760.63;;;0.63;90.03
9423;BME280;65863;49.506;10.400;2024-01-07T07:55:41;97744.44;;;0.45;90.34
9423;BME280;65863;49.506;10.400;2024-01-07T07:58:25;97779.06;;;0.78;90.45
9423;BME280;65863;49.506;10.400;2024-01-07T08:01:09;97780.50;;;0.67;90.37
9423;BME280;65863;49.506;10.400;2024-01-07T08:03:53;97776.47;;;0.63;89.67
9423;BME280;65863;49.506;10.400;2024-01-07T08:06:37;97762.25;;;0.44;89.23
9423;BME280;65863;49.506;10.400;2024-01-07T08:09:21;97791.22;;;0.54;89.24
9423;BME280;65863;49.506;10.400;2024-01-07T08:12:06;97771.50;;;0.41;88.98
9423;BME280;65863;49.506;10.400;2024-01-07T08:14:50;97766.22;;;0.37;88.51
9423;BME280;65863;49.506;10.400;2024-01-07T08:17:34;97747.31;;;0.24;88.20
9423;BME280;65863;49.506;10.400;2024-01-07T08:20:18;97770.69;;;0.29;88.70
9423;BME280;65863;49.506;10.400;2024-01-07T08:23:03;97784.63;;;0.46;88.61
9423;BME280;65863;49.506;10.400;2024-01-07T08:25:48;97841.31;;;0.67;88.90
9423;BME280;65863;49.506;10.400;2024-01-07T08:28:32;97787.66;;;0.48;88.33
9423;BME280;65863;49.506;10.400;2024-01-07T08:31:16;97795.38;;;0.44;88.57
9423;BME280;65863;49.506;10.400;2024-01-07T08:34:00;97786.25;;;0.32;87.45
9423;BME280;65863;49.506;10.400;2024-01-07T08:36:44;97812.19;;;0.40;87.38
9423;BME280;65863;49.506;10.400;2024-01-07T08:39:28;97827.47;;;0.36;86.94
9423;BME280;65863;49.506;10.400;2024-01-07T08:42:13;97813.13;;;0.31;86.94
9423;BME280;65863;49.506;10.400;2024-01-07T08:44:57;97790.09;;;0.14;87.12
9423;BME280;65863;49.506;10.400;2024-01-07T08:47:44;97816.31;;;0.24;87.63
9423;BME280;65863;49.506;10.400;2024-01-07T08:50:28;97814.41;;;0.10;86.40
9423;BME280;65863;49.506;10.400;2024-01-07T08:53:13;97811.59;;;0.04;86.94
9423;BME280;65863;49.506;10.400;2024-01-07T08:55:58;97805.81;;;0.02;87.56
9423;BME280;65863;49.506;10.400;2024-01-07T08:58:42;97830.03;;;0.13;86.68
9423;BME280;65863;49.506;10.400;2024-01-07T09:01:26;97837.03;;;0.14;86.43
9423;BME280;65863;49.506;10.400;2024-01-07T09:04:10;97844.09;;;0.15;86.89
9423;BME280;65863;49.506;10.400;2024-01-07T09:06:54;97833.66;;;0.04;87.25
9423;BME280;65863;49.506;10.400;2024-01-07T09:09:38;97784.28;;;-0.41;86.56
9423;BME280;65863;49.506;10.400;2024-01-07T09:12:22;97829.28;;;-0.08;86.88
9423;BME280;65863;49.506;10.400;2024-01-07T09:15:07;97861.28;;;0.04;87.09
9423;BME280;65863;49.506;10.400;2024-01-07T09:17:54;97787.16;;;-0.50;86.71
9423;BME280;65863;49.506;10.400;2024-01-07T09:21:16;97861.50;;;0.01;86.80
9423;BME280;65863;49.506;10.400;2024-01-07T09:24:00;97848.47;;;-0.20;87.35
9423;BME280;65863;49.506;10.400;2024-01-07T09:26:44;97882.34;;;0.02;87.38
9423;BME280;65863;49.506;10.400;2024-01-07T09:29:28;97851.38;;;-0.29;86.72
9423;BME280;65863;49.506;10.400;2024-01-07T09:32:12;97853.38;;;-0.29;87.47
9423;BME280;65863;49.506;10.400;2024-01-07T09:34:56;97853.22;;;-0.20;87.43
9423;BME280;65863;49.506;10.400;2024-01-07T09:37:41;97872.28;;;-0.22;87.56
9423;BME280;65863;49.506;10.400;2024-01-07T09:40:25;97875.03;;;-0.22;87.95
9423;BME280;65863;49.506;10.400;2024-01-07T09:43:09;97883.44;;;-0.11;88.22
9423;BME280;65863;49.506;10.400;2024-01-07T09:45:53;97876.69;;;-0.30;87.84
9423;BME280;65863;49.506;10.400;2024-01-07T09:48:38;97893.03;;;-0.27;87.47
9423;BME280;65863;49.506;10.400;2024-01-07T09:51:22;97910.16;;;-0.23;88.08
9423;BME280;65863;49.506;10.400;2024-01-07T09:54:08;97908.88;;;-0.22;88.58
9423;BME280;65863;49.506;10.400;2024-01-07T09:57:00;97885.78;;;-0.45;88.58
9423;BME280;65863;49.506;10.400;2024-01-07T09:59:45;97882.88;;;-0.56;88.81
9423;BME280;65863;49.506;10.400;2024-01-07T10:02:30;97883.63;;;-0.56;88.99
9423;BME280;65863;49.506;10.400;2024-01-07T10:05:14;97903.13;;;-0.59;88.89
9423;BME280;65863;49.506;10.400;2024-01-07T10:07:58;97894.31;;;-0.63;88.69
9423;BME280;65863;49.506;10.400;2024-01-07T10:10:42;97902.66;;;-0.58;89.12
9423;BME280;65863;49.506;10.400;2024-01-07T10:13:26;97902.28;;;-0.65;89.23
9423;BME280;65863;49.506;10.400;2024-01-07T10:16:10;97901.50;;;-0.51;89.12
9423;BME280;65863;49.506;10.400;2024-01-07T10:18:54;97914.59;;;-0.46;89.80
9423;BME280;65863;49.506;10.400;2024-01-07T10:21:38;97848.47;;;-0.96;89.63
9423;BME280;65863;49.506;10.400;2024-01-07T10:24:22;97907.00;;;-0.51;89.51
9423;BME280;65863;49.506;10.400;2024-01-07T10:27:08;97899.97;;;-0.52;89.78
9423;BME280;65863;49.506;10.400;2024-01-07T10:29:52;97880.28;;;-0.80;88.44
9423;BME280;65863;49.506;10.400;2024-01-07T10:32:41;97910.53;;;-0.65;89.16
9423;BME280;65863;49.506;10.400;2024-01-07T10:35:32;97932.44;;;-0.41;88.92
9423;BME280;65863;49.506;10.400;2024-01-07T10:38:17;97932.50;;;-0.56;88.80
9423;BME280;65863;49.506;10.400;2024-01-07T10:41:01;97898.25;;;-0.85;88.90
9423;BME280;65863;49.506;10.400;2024-01-07T10:43:49;97887.50;;;-0.98;89.16
9423;BME280;65863;49.506;10.400;2024-01-07T10:46:33;97914.56;;;-0.81;88.84
9423;BME280;65863;49.506;10.400;2024-01-07T10:49:20;97949.06;;;-0.71;89.06
9423;BME280;65863;49.506;10.400;2024-01-07T10:52:07;97911.75;;;-0.87;89.47
9423;BME280;65863;49.506;10.400;2024-01-07T10:55:33;97929.41;;;-0.79;89.88
9423;BME280;65863;49.506;10.400;2024-01-07T10:58:18;97946.97;;;-0.61;90.31
9423;BME280;65863;49.506;10.400;2024-01-07T11:01:03;97949.94;;;-0.80;90.50
9423;BME280;65863;49.506;10.400;2024-01-07T11:04:06;97926.31;;;-1.01;90.43
9423;BME280;65863;49.506;10.400;2024-01-07T11:06:59;97948.44;;;-0.96;90.27
9423;BME280;65863;49.506;10.400;2024-01-07T11:09:56;97950.44;;;-0.96;90.27
9423;BME280;65863;49.506;10.400;2024-01-07T11:12:53;97904.28;;;-1.31;90.45
9423;BME280;65863;49.506;10.400;2024-01-07T11:18:31;97929.44;;;-1.09;90.54
9423;BME280;65863;49.506;10.400;2024-01-07T11:21:23;97950.72;;;-0.94;90.71
9423;BME280;65863;49.506;10.400;2024-01-07T11:24:09;97918.72;;;-1.22;90.20
9423;BME280;65863;49.506;10.400;2024-01-07T11:26:53;97960.50;;;-0.93;90.49
9423;BME280;65863;49.506;10.400;2024-01-07T11:29:38;97873.03;;;-1.58;89.72
9423;BME280;65863;49.506;10.400;2024-01-07T11:32:23;97954.69;;;-0.95;90.29
9423;BME280;65863;49.506;10.400;2024-01-07T11:35:12;97919.84;;;-1.13;90.28
9423;BME280;65863;49.506;10.400;2024-01-07T11:37:56;97938.47;;;-1.08;89.46
9423;BME280;65863;49.506;10.400;2024-01-07T11:40:40;97928.38;;;-1.26;89.62
9423;BME280;65863;49.506;10.400;2024-01-07T11:43:25;97905.31;;;-1.44;88.99
9423;BME280;65863;49.506;10.400;2024-01-07T11:46:09;97916.03;;;-1.46;89.37
9423;BME280;65863;49.506;10.400;2024-01-07T11:48:55;97961.19;;;-1.13;90.04
9423;BME280;65863;49.506;10.400;2024-01-07T11:51:42;97949.50;;;-1.23;89.64
9423;BME280;65863;49.506;10.400;2024-01-07T11:54:27;97912.91;;;-1.39;89.31
9423;BME280;65863;49.506;10.400;2024-01-07T11:57:12;97949.56;;;-1.02;89.25
9423;BME280;65863;49.506;10.400;2024-01-07T11:59:56;97952.31;;;-1.02;89.81
9423;BME280;65863;49.506;10.400;2024-01-07T12:02:40;97936.75;;;-1.21;89.11
9423;BME280;65863;49.506;10.400;2024-01-07T12:05:25;97929.34;;;-1.29;89.13
9423;BME280;65863;49.506;10.400;2024-01-07T12:08:09;97934.66;;;-1.26;88.70
9423;BME280;65863;49.506;10.400;2024-01-07T12:10:54;97950.59;;;-1.15;89.04
9423;BME280;65863;49.506;10.400;2024-01-07T12:13:39;97938.06;;;-1.31;88.88
9423;BME280;65863;49.506;10.400;2024-01-07T12:17:01;97948.34;;;-1.31;89.26
9423;BME280;65863;49.506;10.400;2024-01-07T12:19:45;97961.09;;;-1.19;89.12
9423;BME280;65863;49.506;10.400;2024-01-07T12:22:30;97947.84;;;-1.15;88.68
9423;BME280;65863;49.506;10.400;2024-01-07T12:25:21;97967.34;;;-1.04;87.96
9423;BME280;65863;49.506;10.400;2024-01-07T12:28:07;97948.63;;;-1.14;88.24
9423;BME280;65863;49.506;10.400;2024-01-07T12:30:51;97948.13;;;-1.28;88.26
9423;BME280;65863;49.506;10.400;2024-01-07T12:33:38;97960.13;;;-1.16;88.30
9423;BME280;65863;49.506;10.400;2024-01-07T12:36:25;97965.63;;;-1.16;88.18
9423;BME280;65863;49.506;10.400;2024-01-07T12:39:09;97943.59;;;-1.31;88.73
9423;BME280;65863;49.506;10.400;2024-01-07T12:41:54;97973.03;;;-1.22;88.47
9423;BME280;65863;49.506;10.400;2024-01-07T12:44:38;97949.88;;;-1.30;88.17
9423;BME280;65863;49.506;10.400;2024-01-07T12:47:22;97952.22;;;-1.38;88.30
9423;BME280;65863;49.506;10.400;2024-01-07T12:50:08;97983.97;;;-1.13;88.36
9423;BME280;65863;49.506;10.400;2024-01-07T12:52:53;97957.72;;;-1.38;86.94
9423;BME280;65863;49.506;10.400;2024-01-07T12:55:37;97950.22;;;-1.52;86.73
9423;BME280;65863;49.506;10.400;2024-01-07T12:58:21;97993.75;;;-1.27;87.01
9423;BME280;65863;49.506;10.400;2024-01-07T13:01:05;97966.34;;;-1.45;85.76
9423;BME280;65863;49.506;10.400;2024-01-07T13:03:49;97984.53;;;-1.39;86.05
9423;BME280;65863;49.506;10.400;2024-01-07T13:06:33;97974.25;;;-1.53;86.13
9423;BME280;65863;49.506;10.400;2024-01-07T13:09:17;97975.47;;;-1.54;86.13
9423;BME280;65863;49.506;10.400;2024-01-07T13:12:01;97987.63;;;-1.46;85.52
9423;BME280;65863;49.506;10.400;2024-01-07T13:14:46;97988.38;;;-1.45;85.54
9423;BME280;65863;49.506;10.400;2024-01-07T13:17:31;98010.47;;;-1.30;85.06
9423;BME280;65863;49.506;10.400;2024-01-07T13:20:16;98017.69;;;-1.33;84.77
9423;BME280;65863;49.506;10.400;2024-01-07T13:23:03;97991.78;;;-1.50;84.97
9423;BME280;65863;49.506;10.400;2024-01-07T13:25:48;97982.88;;;-1.60;84.67
9423;BME280;65863;49.506;10.400;2024-01-07T13:28:32;97995.78;;;-1.51;84.30
9423;BME280;65863;49.506;10.400;2024-01-07T13:31:16;98001.09;;;-1.48;84.21
9423;BME280;65863;49.506;10.400;2024-01-07T13:34:00;98001.09;;;-1.48;84.23
9423;BME280;65863;49.506;10.400;2024-01-07T13:37:22;98012.69;;;-1.44;84.19
9423;BME280;65863;49.506;10.400;2024-01-07T13:40:07;98035.72;;;-1.32;83.88
9423;BME280;65863;49.506;10.400;2024-01-07T13:42:53;97991.13;;;-1.60;83.49
9423;BME280;65863;49.506;10.400;2024-01-07T13:45:37;98010.31;;;-1.51;83.04
9423;BME280;65863;49.506;10.400;2024-01-07T13:48:22;98034.38;;;-1.36;83.61
9423;BME280;65863;49.506;10.400;2024-01-07T13:51:06;98012.91;;;-1.47;83.98
9423;BME280;65863;49.506;10.400;2024-01-07T13:53:50;98020.38;;;-1.48;83.78
9423;BME280;65863;49.506;10.400;2024-01-07T13:56:34;98031.59;;;-1.36;83.90
9423;BME280;65863;49.506;10.400;2024-01-07T13:59:21;98038.94;;;-1.33;84.12
9423;BME280;65863;49.506;10.400;2024-01-07T14:02:07;98056.34;;;-1.27;83.66
9423;BME280;65863;49.506;10.400;2024-01-07T14:04:52;98028.72;;;-1.57;83.91
9423;BME280;65863;49.506;10.400;2024-01-07T14:07:36;97982.97;;;-1.79;84.68
9423;BME280;65863;49.506;10.400;2024-01-07T14:10:20;98046.69;;;-1.47;84.50
9423;BME280;65863;49.506;10.400;2024-01-07T14:13:04;98031.75;;;-1.55;85.01
9423;BME280;65863;49.506;10.400;2024-01-07T14:15:48;98065.72;;;-1.34;83.81
9423;BME280;65863;49.506;10.400;2024-01-07T14:18:32;98047.69;;;-1.59;83.85
9423;BME280;65863;49.506;10.400;2024-01-07T14:21:16;98057.31;;;-1.54;83.91
9423;BME280;65863;49.506;10.400;2024-01-07T14:24:00;98057.25;;;-1.69;82.66
9423;BME280;65863;49.506;10.400;2024-01-07T14:26:45;98069.91;;;-1.63;82.13
9423;BME280;65863;49.506;10.400;2024-01-07T14:29:29;98045.72;;;-1.83;81.50
9423;BME280;65863;49.506;10.400;2024-01-07T14:32:13;98045.41;;;-1.85;81.55
9423;BME280;65863;49.506;10.400;2024-01-07T14:34:57;98067.63;;;-1.64;81.62
9423;BME280;65863;49.506;10.400;2024-01-07T14:37:41;98050.63;;;-1.87;81.61
9423;BME280;65863;49.506;10.400;2024-01-07T14:40:26;98071.63;;;-1.75;81.37
9423;BME280;65863;49.506;10.400;2024-01-07T14:43:10;98078.53;;;-1.70;81.04
9423;BME280;65863;49.506;10.400;2024-01-07T14:45:54;98072.94;;;-1.85;80.12
9423;BME280;65863;49.506;10.400;2024-01-07T14:48:38;97997.59;;;-2.45;80.07
9423;BME280;65863;49.506;10.400;2024-01-07T14:51:22;98100.41;;;-1.76;80.75